sensor_id;sensor_type;location;lat;lon;timestamp;pressure;altitude;pressure_sealevel;temperature;humidity
63090;BME280;49174;43.198;27.824;2023-02-28T00:53:41;102614.34;;;7.60;91.10
63090;BME280;49174;43.198;27.824;2023-02-28T04:05:56;102713.16;;;7.13;89.24
63090;BME280;49174;43.198;27.824;2023-02-28T04:08:23;102698.75;;;7.14;89.13
63090;BME280;49174;43.198;27.824;2023-02-28T04:21:59;102714.63;;;7.06;88.97
63090;BME280;49174;43.198;27.824;2023-02-28T04:42:00;102683.06;;;6.87;88.59
63090;BME280;49174;43.198;27.824;2023-02-28T05:03:20;102681.00;;;6.91;88.28
63090;BME280;49174;43.198;27.824;2023-02-28T05:05:47;102688.06;;;6.92;88.25
63090;BME280;49174;43.198;27.824;2023-02-28T05:08:13;102692.47;;;6.93;87.91
63090;BME280;49174;43.198;27.824;2023-02-28T05:10:39;102692.59;;;6.91;87.98
63090;BME280;49174;43.198;27.824;2023-02-28T05:13:04;102699.91;;;6.89;88.42
63090;BME280;49174;43.198;27.824;2023-02-28T05:15:30;102699.06;;;6.89;88.24
63090;BME280;49174;43.198;27.824;2023-02-28T05:17:56;102707.13;;;6.89;88.20
63090;BME280;49174;43.198;27.824;2023-02-28T05:20:21;102706.38;;;6.87;88.93
63090;BME280;49174;43.198;27.824;2023-02-28T05:22:47;102719.31;;;6.82;88.71
63090;BME280;49174;43.198;27.824;2023-02-28T05:25:18;102729.78;;;6.85;89.56
63090;BME280;49174;43.198;27.824;2023-02-28T05:27:45;102736.63;;;6.89;90.07
63090;BME280;49174;43.198;27.824;2023-02-28T05:30:11;102739.06;;;6.92;89.30
63090;BME280;49174;43.198;27.824;2023-02-28T05:32:37;102767.59;;;6.82;89.69
63090;BME280;49174;43.198;27.824;2023-02-28T05:35:04;102771.28;;;6.81;90.14
63090;BME280;49174;43.198;27.824;2023-02-28T05:37:29;102781.50;;;6.87;90.04
63090;BME280;49174;43.198;27.824;2023-02-28T05:39:55;102795.28;;;6.93;90.65
63090;BME280;49174;43.198;27.824;2023-02-28T05:42:20;102791.50;;;6.96;91.16
63090;BME280;49174;43.198;27.824;2023-02-28T05:44:46;102789.81;;;6.95;90.24
63090;BME280;49174;43.198;27.824;2023-02-28T05:47:12;102786.38;;;6.93;90.96
63090;BME280;49174;43.198;27.824;2023-02-28T05:49:41;102786.38;;;6.93;91.17
63090;BME280;49174;43.198;27.824;2023-02-28T05:52:07;102778.31;;;6.93;91.65
63090;BME280;49174;43.198;27.824;2023-02-28T05:54:32;102773.44;;;6.98;91.43
63090;BME280;49174;43.198;27.824;2023-02-28T05:56:58;102774.94;;;7.02;92.24
63090;BME280;49174;43.198;27.824;2023-02-28T05:59:23;102791.38;;;7.09;91.75
63090;BME280;49174;43.198;27.824;2023-02-28T06:01:49;102796.25;;;7.15;92.12
63090;BME280;49174;43.198;27.824;2023-02-28T06:04:17;102797.56;;;7.21;92.67
63090;BME280;49174;43.198;27.824;2023-02-28T06:06:45;102798.56;;;7.20;93.69
63090;BME280;49174;43.198;27.824;2023-02-28T06:09:11;102808.09;;;7.12;93.17
63090;BME280;49174;43.198;27.824;2023-02-28T06:11:36;102807.72;;;7.17;93.84
63090;BME280;49174;43.198;27.824;2023-02-28T06:14:02;102807.13;;;7.02;93.06
63090;BME280;49174;43.198;27.824;2023-02-28T06:16:29;102806.91;;;6.94;94.49
63090;BME280;49174;43.198;27.824;2023-02-28T06:19:00;102792.00;;;6.90;94.37
63090;BME280;49174;43.198;27.824;2023-02-28T06:21:26;102795.66;;;6.89;95.88
63090;BME280;49174;43.198;27.824;2023-02-28T06:23:56;102808.00;;;6.91;96.08
63090;BME280;49174;43.198;27.824;2023-02-28T06:26:21;102807.34;;;6.88;96.04
63090;BME280;49174;43.198;27.824;2023-02-28T06:28:47;102801.88;;;6.89;95.94
63090;BME280;49174;43.198;27.824;2023-02-28T06:31:15;102803.47;;;6.92;96.60
63090;BME280;49174;43.198;27.824;2023-02-28T06:33:42;102798.09;;;6.92;96.55
63090;BME280;49174;43.198;27.824;2023-02-28T06:36:09;102779.31;;;6.92;97.41
63090;BME280;49174;43.198;27.824;2023-02-28T06:38:36;102785.19;;;6.97;97.31
63090;BME280;49174;43.198;27.824;2023-02-28T06:41:02;102784.78;;;7.02;97.41
63090;BME280;49174;43.198;27.824;2023-02-28T06:43:29;102793.69;;;7.13;99.23
63090;BME280;49174;43.198;27.824;2023-02-28T06:45:57;102800.41;;;7.19;97.95
63090;BME280;49174;43.198;27.824;2023-02-28T06:48:24;102802.94;;;7.21;97.95
63090;BME280;49174;43.198;27.824;2023-02-28T06:50:50;102805.03;;;7.28;97.48
63090;BME280;49174;43.198;27.824;2023-02-28T06:53:15;102791.84;;;7.25;97.20
63090;BME280;49174;43.198;27.824;2023-02-28T06:55:41;102798.66;;;7.29;97.42
63090;BME280;49174;43.198;27.824;2023-02-28T06:58:07;102793.28;;;7.29;97.26
63090;BME280;49174;43.198;27.824;2023-02-28T07:00:44;102800.88;;;7.35;98.11
63090;BME280;49174;43.198;27.824;2023-02-28T07:03:11;102789.88;;;7.38;97.55
63090;BME280;49174;43.198;27.824;2023-02-28T07:05:38;102790.03;;;7.14;96.41
63090;BME280;49174;43.198;27.824;2023-02-28T07:08:05;102796.75;;;7.09;97.89
63090;BME280;49174;43.198;27.824;2023-02-28T07:10:34;102798.81;;;7.16;99.03
63090;BME280;49174;43.198;27.824;2023-02-28T07:13:03;102801.78;;;7.02;97.48
63090;BME280;49174;43.198;27.824;2023-02-28T07:15:29;102807.59;;;6.74;98.33
63090;BME280;49174;43.198;27.824;2023-02-28T07:17:54;102808.09;;;6.67;100.00
63090;BME280;49174;43.198;27.824;2023-02-28T07:20:22;102797.63;;;6.87;100.00
63090;BME280;49174;43.198;27.824;2023-02-28T07:22:48;102801.53;;;6.94;100.00
63090;BME280;49174;43.198;27.824;2023-02-28T07:25:25;102795.91;;;7.08;100.00
63090;BME280;49174;43.198;27.824;2023-02-28T07:27:51;102802.00;;;7.22;99.64
63090;BME280;49174;43.198;27.824;2023-02-28T07:30:17;102795.88;;;7.31;99.73
63090;BME280;49174;43.198;27.824;2023-02-28T07:32:42;102787.19;;;7.38;99.50
63090;BME280;49174;43.198;27.824;2023-02-28T07:35:08;102784.00;;;7.45;99.38
63090;BME280;49174;43.198;27.824;2023-02-28T07:37:34;102769.47;;;7.47;98.75
63090;BME280;49174;43.198;27.824;2023-02-28T07:40:06;102773.59;;;7.51;98.82
63090;BME280;49174;43.198;27.824;2023-02-28T07:42:37;102771.38;;;7.56;99.05
63090;BME280;49174;43.198;27.824;2023-02-28T07:45:04;102783.38;;;7.52;98.04
63090;BME280;49174;43.198;27.824;2023-02-28T07:47:30;102777.22;;;7.61;98.46
63090;BME280;49174;43.198;27.824;2023-02-28T07:49:56;102779.16;;;7.59;97.21
63090;BME280;49174;43.198;27.824;2023-02-28T07:52:23;102783.59;;;7.60;97.16
63090;BME280;49174;43.198;27.824;2023-02-28T07:54:52;102789.28;;;7.67;96.97
63090;BME280;49174;43.198;27.824;2023-02-28T07:57:17;102789.41;;;7.66;96.99
63090;BME280;49174;43.198;27.824;2023-02-28T07:59:43;102792.56;;;7.71;96.62
63090;BME280;49174;43.198;27.824;2023-02-28T08:02:16;102810.34;;;7.51;94.87
63090;BME280;49174;43.198;27.824;2023-02-28T08:04:41;102808.66;;;7.50;95.73
63090;BME280;49174;43.198;27.824;2023-02-28T08:07:07;102818.66;;;7.48;94.41
63090;BME280;49174;43.198;27.824;2023-02-28T08:09:33;102824.88;;;7.48;95.05
63090;BME280;49174;43.198;27.824;2023-02-28T08:11:59;102822.66;;;7.53;95.26
63090;BME280;49174;43.198;27.824;2023-02-28T08:14:26;102818.16;;;7.54;95.35
63090;BME280;49174;43.198;27.824;2023-02-28T08:16:51;102813.72;;;7.64;95.74
63090;BME280;49174;43.198;27.824;2023-02-28T08:19:17;102822.84;;;7.73;96.03
63090;BME280;49174;43.198;27.824;2023-02-28T08:21:42;102816.72;;;7.82;95.81
63090;BME280;49174;43.198;27.824;2023-02-28T08:24:08;102819.88;;;7.87;94.32
63090;BME280;49174;43.198;27.824;2023-02-28T08:26:33;102821.81;;;7.85;93.38
63090;BME280;49174;43.198;27.824;2023-02-28T08:28:59;102824.03;;;7.80;92.81
63090;BME280;49174;43.198;27.824;2023-02-28T08:31:24;102819.41;;;7.82;93.42
63090;BME280;49174;43.198;27.824;2023-02-28T08:33:50;102818.28;;;7.84;92.79
63090;BME280;49174;43.198;27.824;2023-02-28T08:36:17;102823.81;;;7.83;92.83
63090;BME280;49174;43.198;27.824;2023-02-28T08:38:43;102811.59;;;7.79;92.44
63090;BME280;49174;43.198;27.824;2023-02-28T08:41:11;102820.50;;;7.79;92.50
63090;BME280;49174;43.198;27.824;2023-02-28T08:43:37;102823.19;;;7.79;91.71
63090;BME280;49174;43.198;27.824;2023-02-28T08:46:03;102829.94;;;7.74;92.13
63090;BME280;49174;43.198;27.824;2023-02-28T08:48:30;102824.28;;;7.77;92.03
63090;BME280;49174;43.198;27.824;2023-02-28T08:51:01;102832.38;;;7.66;91.23
63090;BME280;49174;43.198;27.824;2023-02-28T08:53:27;102829.00;;;7.64;91.39
63090;BME280;49174;43.198;27.824;2023-02-28T08:56:13;102836.06;;;7.65;91.39
63090;BME280;49174;43.198;27.824;2023-02-28T08:58:39;102844.38;;;7.61;91.39
63090;BME280;49174;43.198;27.824;2023-02-28T09:01:31;102839.50;;;7.67;91.80
63090;BME280;49174;43.198;27.824;2023-02-28T09:03:57;102832.03;;;7.70;92.25
63090;BME280;49174;43.198;27.824;2023-02-28T09:06:25;102830.41;;;7.79;92.61
63090;BME280;49174;43.198;27.824;2023-02-28T09:08:52;102831.09;;;7.92;92.59
63090;BME280;49174;43.198;27.824;2023-02-28T09:11:18;102823.09;;;8.02;91.00
63090;BME280;49174;43.198;27.824;2023-02-28T09:13:44;102818.38;;;7.94;90.03
63090;BME280;49174;43.198;27.824;2023-02-28T09:16:12;102830.66;;;8.08;90.99
63090;BME280;49174;43.198;27.824;2023-02-28T09:18:38;102823.41;;;8.20;90.10
63090;BME280;49174;43.198;27.824;2023-02-28T09:21:08;102829.25;;;8.25;89.11
63090;BME280;49174;43.198;27.824;2023-02-28T09:23:34;102819.78;;;8.31;90.20
63090;BME280;49174;43.198;27.824;2023-02-28T09:26:00;102812.81;;;8.07;87.33
63090;BME280;49174;43.198;27.824;2023-02-28T09:28:26;102828.56;;;8.12;89.05
63090;BME280;49174;43.198;27.824;2023-02-28T09:30:53;102828.31;;;8.15;89.76
63090;BME280;49174;43.198;27.824;2023-02-28T09:33:20;102831.03;;;8.03;88.73
63090;BME280;49174;43.198;27.824;2023-02-28T09:35:49;102834.00;;;8.00;89.56
63090;BME280;49174;43.198;27.824;2023-02-28T09:38:16;102834.53;;;8.15;89.29
63090;BME280;49174;43.198;27.824;2023-02-28T09:40:49;102834.97;;;7.99;87.28
63090;BME280;49174;43.198;27.824;2023-02-28T09:43:16;102838.97;;;8.05;88.49
63090;BME280;49174;43.198;27.824;2023-02-28T09:45:49;102839.38;;;7.57;88.26
63090;BME280;49174;43.198;27.824;2023-02-28T09:48:23;102835.78;;;7.35;91.33
63090;BME280;49174;43.198;27.824;2023-02-28T09:51:04;102845.81;;;7.66;91.12
63090;BME280;49174;43.198;27.824;2023-02-28T09:53:36;102834.19;;;7.76;90.64
63090;BME280;49174;43.198;27.824;2023-02-28T09:56:08;102847.63;;;7.76;90.05
63090;BME280;49174;43.198;27.824;2023-02-28T09:58:40;102852.94;;;7.67;88.58
63090;BME280;49174;43.198;27.824;2023-02-28T10:04:04;102856.38;;;6.67;94.13
63090;BME280;49174;43.198;27.824;2023-02-28T10:06:41;102870.22;;;6.39;96.62
63090;BME280;49174;43.198;27.824;2023-02-28T10:09:19;102875.06;;;6.34;97.48
63090;BME280;49174;43.198;27.824;2023-02-28T10:11:50;102861.63;;;6.22;97.26
63090;BME280;49174;43.198;27.824;2023-02-28T10:14:26;102862.19;;;6.15;97.89
63090;BME280;49174;43.198;27.824;2023-02-28T10:17:06;102855.66;;;6.19;99.04
63090;BME280;49174;43.198;27.824;2023-02-28T10:20:05;102847.34;;;6.11;99.77
63090;BME280;49174;43.198;27.824;2023-02-28T10:25:23;102841.81;;;6.36;99.54
63090;BME280;49174;43.198;27.824;2023-02-28T10:27:50;102825.59;;;6.49;97.84
63090;BME280;49174;43.198;27.824;2023-02-28T10:30:18;102825.38;;;6.41;97.80
63090;BME280;49174;43.198;27.824;2023-02-28T10:32:51;102828.28;;;6.49;98.93
63090;BME280;49174;43.198;27.824;2023-02-28T10:35:23;102822.72;;;6.63;98.13
63090;BME280;49174;43.198;27.824;2023-02-28T10:37:57;102809.56;;;6.60;97.45
63090;BME280;49174;43.198;27.824;2023-02-28T10:45:20;102806.81;;;6.38;97.37
63090;BME280;49174;43.198;27.824;2023-02-28T10:48:36;102800.25;;;6.31;98.53
63090;BME280;49174;43.198;27.824;2023-02-28T10:58:52;102789.91;;;6.60;97.08
63090;BME280;49174;43.198;27.824;2023-02-28T11:03:50;102785.03;;;6.54;98.98
63090;BME280;49174;43.198;27.824;2023-02-28T11:06:24;102785.63;;;6.57;98.57
63090;BME280;49174;43.198;27.824;2023-02-28T11:08:57;102788.81;;;6.51;98.57
63090;BME280;49174;43.198;27.824;2023-02-28T11:11:26;102785.75;;;6.44;98.16
63090;BME280;49174;43.198;27.824;2023-02-28T11:13:57;102787.59;;;6.44;99.14
63090;BME280;49174;43.198;27.824;2023-02-28T11:16:36;102783.59;;;6.49;99.32
63090;BME280;49174;43.198;27.824;2023-02-28T11:19:04;102779.41;;;6.45;98.49
63090;BME280;49174;43.198;27.824;2023-02-28T11:21:35;102784.94;;;6.55;99.34
63090;BME280;49174;43.198;27.824;2023-02-28T11:24:41;102773.81;;;6.48;99.65
63090;BME280;49174;43.198;27.824;2023-02-28T11:29:55;102763.91;;;6.38;99.52
63090;BME280;49174;43.198;27.824;2023-02-28T11:32:22;102761.25;;;6.49;100.00
63090;BME280;49174;43.198;27.824;2023-02-28T11:35:10;102758.97;;;6.67;99.55
63090;BME280;49174;43.198;27.824;2023-02-28T11:37:39;102765.16;;;6.67;98.39
63090;BME280;49174;43.198;27.824;2023-02-28T11:40:28;102767.84;;;6.56;98.82
63090;BME280;49174;43.198;27.824;2023-02-28T11:43:09;102760.66;;;6.45;98.52
63090;BME280;49174;43.198;27.824;2023-02-28T11:51:18;102749.81;;;6.47;99.57
63090;BME280;49174;43.198;27.824;2023-02-28T11:56:33;102746.88;;;6.50;99.30
63090;BME280;49174;43.198;27.824;2023-02-28T11:59:22;102745.91;;;6.51;100.00
63090;BME280;49174;43.198;27.824;2023-02-28T12:02:06;102732.50;;;6.62;99.75
63090;BME280;49174;43.198;27.824;2023-02-28T12:10:39;102733.34;;;6.74;97.94
63090;BME280;49174;43.198;27.824;2023-02-28T12:13:26;102738.69;;;6.74;97.85
63090;BME280;49174;43.198;27.824;2023-02-28T12:16:20;102745.41;;;6.91;98.13
63090;BME280;49174;43.198;27.824;2023-02-28T12:19:07;102746.75;;;6.74;96.12
63090;BME280;49174;43.198;27.824;2023-02-28T12:27:06;102749.81;;;6.69;96.31
63090;BME280;49174;43.198;27.824;2023-02-28T12:29:40;102750.56;;;6.60;96.60
63090;BME280;49174;43.198;27.824;2023-02-28T12:32:15;102757.13;;;6.56;96.77
63090;BME280;49174;43.198;27.824;2023-02-28T12:34:48;102760.06;;;6.64;97.08
63090;BME280;49174;43.198;27.824;2023-02-28T12:37:19;102766.25;;;6.76;95.88
63090;BME280;49174;43.198;27.824;2023-02-28T12:39:51;102757.84;;;6.92;95.98
63090;BME280;49174;43.198;27.824;2023-02-28T12:42:26;102749.44;;;6.97;94.57
63090;BME280;49174;43.198;27.824;2023-02-28T12:44:59;102745.88;;;6.96;94.77
63090;BME280;49174;43.198;27.824;2023-02-28T12:47:26;102739.03;;;7.14;93.60
63090;BME280;49174;43.198;27.824;2023-02-28T12:49:59;102730.59;;;7.19;92.14
63090;BME280;49174;43.198;27.824;2023-02-28T12:55:38;102740.03;;;7.02;93.05
63090;BME280;49174;43.198;27.824;2023-02-28T13:09:23;102744.44;;;6.92;93.34
63090;BME280;49174;43.198;27.824;2023-02-28T13:11:51;102740.28;;;6.88;93.05
63090;BME280;49174;43.198;27.824;2023-02-28T13:19:20;102757.13;;;6.79;93.80
63090;BME280;49174;43.198;27.824;2023-02-28T13:21:47;102759.31;;;6.74;94.07
63090;BME280;49174;43.198;27.824;2023-02-28T13:24:36;102751.75;;;6.79;93.99
63090;BME280;49174;43.198;27.824;2023-02-28T13:29:28;102744.44;;;6.92;93.75
63090;BME280;49174;43.198;27.824;2023-02-28T13:34:38;102759.94;;;6.77;93.10
63090;BME280;49174;43.198;27.824;2023-02-28T13:39:49;102749.31;;;6.76;94.09
63090;BME280;49174;43.198;27.824;2023-02-28T13:47:33;102747.47;;;6.87;93.69
63090;BME280;49174;43.198;27.824;2023-02-28T13:53:21;102736.38;;;6.92;92.50
63090;BME280;49174;43.198;27.824;2023-02-28T14:03:58;102710.00;;;7.08;91.52
63090;BME280;49174;43.198;27.824;2023-02-28T14:06:32;102721.69;;;7.07;91.02
63090;BME280;49174;43.198;27.824;2023-02-28T14:09:01;102719.75;;;7.09;91.16
63090;BME280;49174;43.198;27.824;2023-02-28T14:11:36;102729.03;;;7.16;90.68
63090;BME280;49174;43.198;27.824;2023-02-28T14:14:04;102730.22;;;7.12;89.93
63090;BME280;49174;43.198;27.824;2023-02-28T14:16:39;102729.72;;;7.19;89.77
63090;BME280;49174;43.198;27.824;2023-02-28T14:19:13;102722.81;;;7.16;89.71
63090;BME280;49174;43.198;27.824;2023-02-28T14:21:46;102725.94;;;7.21;89.14
63090;BME280;49174;43.198;27.824;2023-02-28T14:24:33;102729.94;;;7.27;88.60
63090;BME280;49174;43.198;27.824;2023-02-28T14:32:41;102726.69;;;7.12;89.55
63090;BME280;49174;43.198;27.824;2023-02-28T14:37:42;102734.28;;;7.07;89.51
63090;BME280;49174;43.198;27.824;2023-02-28T14:40:21;102731.09;;;7.02;89.14
63090;BME280;49174;43.198;27.824;2023-02-28T14:43:23;102741.97;;;7.00;88.85
63090;BME280;49174;43.198;27.824;2023-02-28T14:45:52;102734.88;;;6.99;89.70
63090;BME280;49174;43.198;27.824;2023-02-28T14:48:19;102743.56;;;7.03;89.61
63090;BME280;49174;43.198;27.824;2023-02-28T14:50:51;102744.16;;;7.06;89.69
63090;BME280;49174;43.198;27.824;2023-02-28T14:53:18;102752.94;;;7.08;90.13
63090;BME280;49174;43.198;27.824;2023-02-28T14:55:47;102744.41;;;7.14;89.26
63090;BME280;49174;43.198;27.824;2023-02-28T14:58:32;102756.13;;;7.13;88.83
63090;BME280;49174;43.198;27.824;2023-02-28T15:01:00;102748.19;;;7.12;89.56
63090;BME280;49174;43.198;27.824;2023-02-28T15:03:30;102749.53;;;7.06;88.40
63090;BME280;49174;43.198;27.824;2023-02-28T15:06:01;102751.38;;;7.06;89.34
63090;BME280;49174;43.198;27.824;2023-02-28T15:08:28;102737.09;;;7.05;88.92
63090;BME280;49174;43.198;27.824;2023-02-28T15:11:00;102741.59;;;7.05;89.74
63090;BME280;49174;43.198;27.824;2023-02-28T15:16:01;102741.97;;;7.11;89.89
63090;BME280;49174;43.198;27.824;2023-02-28T15:18:51;102737.09;;;7.05;89.41
63090;BME280;49174;43.198;27.824;2023-02-28T15:21:18;102742.72;;;7.02;89.70
63090;BME280;49174;43.198;27.824;2023-02-28T15:23:59;102747.22;;;7.02;90.22
63090;BME280;49174;43.198;27.824;2023-02-28T15:26:32;102746.34;;;7.01;90.34
63090;BME280;49174;43.198;27.824;2023-02-28T15:29:05;102735.38;;;7.04;89.74
63090;BME280;49174;43.198;27.824;2023-02-28T15:31:40;102745.16;;;7.05;90.00
63090;BME280;49174;43.198;27.824;2023-02-28T15:34:21;102749.53;;;7.06;89.60
63090;BME280;49174;43.198;27.824;2023-02-28T15:36:48;102745.63;;;6.99;89.25
63090;BME280;49174;43.198;27.824;2023-02-28T15:39:26;102754.91;;;6.95;89.74
63090;BME280;49174;43.198;27.824;2023-02-28T15:42:09;102756.88;;;6.93;89.37
63090;BME280;49174;43.198;27.824;2023-02-28T15:44:35;102757.84;;;6.92;89.69
63090;BME280;49174;43.198;27.824;2023-02-28T15:47:06;102756.88;;;6.93;89.91
63090;BME280;49174;43.198;27.824;2023-02-28T15:49:59;102766.63;;;6.94;89.58
63090;BME280;49174;43.198;27.824;2023-02-28T15:52:38;102765.75;;;6.93;89.72
63090;BME280;49174;43.198;27.824;2023-02-28T15:55:20;102768.84;;;6.89;90.30
63090;BME280;49174;43.198;27.824;2023-02-28T15:57:49;102784.19;;;6.87;90.52
63090;BME280;49174;43.198;27.824;2023-02-28T16:00:19;102786.28;;;6.83;89.63
63090;BME280;49174;43.198;27.824;2023-02-28T16:02:45;102792.59;;;6.82;90.15
63090;BME280;49174;43.198;27.824;2023-02-28T16:07:39;102793.69;;;6.80;90.05
63090;BME280;49174;43.198;27.824;2023-02-28T16:10:07;102788.22;;;6.81;89.99
63090;BME280;49174;43.198;27.824;2023-02-28T16:12:35;102792.75;;;6.81;90.47
63090;BME280;49174;43.198;27.824;2023-02-28T16:15:14;102785.91;;;6.77;90.27
63090;BME280;49174;43.198;27.824;2023-02-28T16:17:42;102783.22;;;6.77;90.58
63090;BME280;49174;43.198;27.824;2023-02-28T16:20:23;102796.03;;;6.84;90.82
63090;BME280;49174;43.198;27.824;2023-02-28T16:22:49;102797.84;;;6.84;90.38
63090;BME280;49174;43.198;27.824;2023-02-28T16:25:19;102804.44;;;6.80;90.53
63090;BME280;49174;43.198;27.824;2023-02-28T16:27:48;102799.06;;;6.80;90.27
63090;BME280;49174;43.198;27.824;2023-02-28T16:30:24;102803.34;;;6.82;90.81
63090;BME280;49174;43.198;27.824;2023-02-28T16:32:51;102804.44;;;6.80;90.27
63090;BME280;49174;43.198;27.824;2023-02-28T16:35:18;102809.34;;;6.75;90.59
63090;BME280;49174;43.198;27.824;2023-02-28T16:37:44;102805.56;;;6.77;90.70
63090;BME280;49174;43.198;27.824;2023-02-28T16:40:33;102802.97;;;6.76;90.49
63090;BME280;49174;43.198;27.824;2023-02-28T16:43:00;102801.63;;;6.70;91.27
63090;BME280;49174;43.198;27.824;2023-02-28T16:45:30;102806.16;;;6.69;91.07
63090;BME280;49174;43.198;27.824;2023-02-28T16:47:56;102810.53;;;6.70;91.49
63090;BME280;49174;43.198;27.824;2023-02-28T16:50:25;102816.63;;;6.72;91.85
63090;BME280;49174;43.198;27.824;2023-02-28T16:52:51;102812.25;;;6.71;91.25
63090;BME280;49174;43.198;27.824;2023-02-28T16:55:21;102812.97;;;6.74;91.67
63090;BME280;49174;43.198;27.824;2023-02-28T16:57:51;102814.69;;;6.75;91.17
63090;BME280;49174;43.198;27.824;2023-02-28T17:00:17;102813.22;;;6.70;91.16
63090;BME280;49174;43.198;27.824;2023-02-28T17:02:43;102805.91;;;6.72;91.07
63090;BME280;49174;43.198;27.824;2023-02-28T17:05:11;102809.94;;;6.67;91.23
63090;BME280;49174;43.198;27.824;2023-02-28T17:07:37;102805.75;;;6.63;91.22
63090;BME280;49174;43.198;27.824;2023-02-28T17:10:19;102794.44;;;6.59;91.70
63090;BME280;49174;43.198;27.824;2023-02-28T17:12:45;102796.84;;;6.51;92.62
63090;BME280;49174;43.198;27.824;2023-02-28T17:15:12;102806.00;;;6.48;92.57
63090;BME280;49174;43.198;27.824;2023-02-28T17:17:38;102810.84;;;6.43;93.45
63090;BME280;49174;43.198;27.824;2023-02-28T17:20:04;102806.59;;;6.41;93.36
63090;BME280;49174;43.198;27.824;2023-02-28T17:22:31;102802.09;;;6.41;94.47
63090;BME280;49174;43.198;27.824;2023-02-28T17:24:56;102811.09;;;6.40;95.09
63090;BME280;49174;43.198;27.824;2023-02-28T17:27:24;102800.47;;;6.28;94.65
63090;BME280;49174;43.198;27.824;2023-02-28T17:29:50;102805.72;;;6.29;95.93
63090;BME280;49174;43.198;27.824;2023-02-28T17:32:16;102806.09;;;6.24;96.09
63090;BME280;49174;43.198;27.824;2023-02-28T17:34:41;102804.00;;;6.28;96.79
63090;BME280;49174;43.198;27.824;2023-02-28T17:37:08;102806.34;;;6.33;96.39
63090;BME280;49174;43.198;27.824;2023-02-28T17:39:34;102806.34;;;6.33;96.39
63090;BME280;49174;43.198;27.824;2023-02-28T17:41:59;102803.91;;;6.30;96.93
63090;BME280;49174;43.198;27.824;2023-02-28T17:44:25;102804.38;;;6.35;97.25
63090;BME280;49174;43.198;27.824;2023-02-28T17:46:51;102809.03;;;6.33;97.99
63090;BME280;49174;43.198;27.824;2023-02-28T17:49:18;102801.94;;;6.32;98.11
63090;BME280;49174;43.198;27.824;2023-02-28T17:51:43;102797.22;;;6.35;98.31
63090;BME280;49174;43.198;27.824;2023-02-28T17:54:09;102808.78;;;6.36;97.71
63090;BME280;49174;43.198;27.824;2023-02-28T17:56:34;102807.31;;;6.32;97.65
63090;BME280;49174;43.198;27.824;2023-02-28T17:59:00;102811.94;;;6.30;97.62
63090;BME280;49174;43.198;27.824;2023-02-28T18:01:26;102808.28;;;6.31;97.47
63090;BME280;49174;43.198;27.824;2023-02-28T18:03:52;102805.84;;;6.28;97.91
63090;BME280;49174;43.198;27.824;2023-02-28T18:06:43;102811.81;;;6.31;98.44
63090;BME280;49174;43.198;27.824;2023-02-28T18:09:13;102807.19;;;6.33;98.55
63090;BME280;49174;43.198;27.824;2023-02-28T18:11:39;102807.06;;;6.35;99.54
63090;BME280;49174;43.198;27.824;2023-02-28T18:14:10;102810.72;;;6.34;98.81
63090;BME280;49174;43.198;27.824;2023-02-28T18:16:36;102812.19;;;6.38;98.94
63090;BME280;49174;43.198;27.824;2023-02-28T18:19:03;102814.16;;;6.36;98.93
63090;BME280;49174;43.198;27.824;2023-02-28T18:21:29;102808.78;;;6.36;99.69
63090;BME280;49174;43.198;27.824;2023-02-28T18:23:56;102810.47;;;6.37;98.48
63090;BME280;49174;43.198;27.824;2023-02-28T18:26:22;102817.78;;;6.35;98.82
63090;BME280;49174;43.198;27.824;2023-02-28T18:28:47;102811.72;;;6.33;99.09
63090;BME280;49174;43.198;27.824;2023-02-28T18:31:16;102801.69;;;6.35;98.68
63090;BME280;49174;43.198;27.824;2023-02-28T18:33:43;102810.25;;;6.40;99.51
63090;BME280;49174;43.198;27.824;2023-02-28T18:36:09;102807.47;;;6.41;99.40
63090;BME280;49174;43.198;27.824;2023-02-28T18:38:35;102814.16;;;6.36;100.00
63090;BME280;49174;43.198;27.824;2023-02-28T18:41:03;102811.06;;;6.29;99.81
63090;BME280;49174;43.198;27.824;2023-02-28T18:43:30;102809.25;;;6.30;99.82
63090;BME280;49174;43.198;27.824;2023-02-28T18:45:56;102809.25;;;6.30;100.00
63090;BME280;49174;43.198;27.824;2023-02-28T18:48:22;102797.41;;;6.32;100.00
63090;BME280;49174;43.198;27.824;2023-02-28T18:50:49;102801.94;;;6.32;99.80
63090;BME280;49174;43.198;27.824;2023-02-28T18:53:15;102800.25;;;6.31;99.67
63090;BME280;49174;43.198;27.824;2023-02-28T18:55:41;102806.69;;;6.28;100.00
63090;BME280;49174;43.198;27.824;2023-02-28T18:58:06;102806.59;;;6.30;100.00
63090;BME280;49174;43.198;27.824;2023-02-28T19:00:32;102818.88;;;6.32;99.74
63090;BME280;49174;43.198;27.824;2023-02-28T19:02:58;102811.81;;;6.31;100.00
63090;BME280;49174;43.198;27.824;2023-02-28T19:05:23;102813.41;;;6.34;100.00
63090;BME280;49174;43.198;27.824;2023-02-28T19:07:49;102822.44;;;6.33;100.00
63090;BME280;49174;43.198;27.824;2023-02-28T19:10:15;102811.81;;;6.31;100.00
63090;BME280;49174;43.198;27.824;2023-02-28T19:12:41;102813.41;;;6.34;100.00
63090;BME280;49174;43.198;27.824;2023-02-28T19:15:08;102810.81;;;6.32;100.00
63090;BME280;49174;43.198;27.824;2023-02-28T19:17:34;102804.38;;;6.35;100.00
63090;BME280;49174;43.198;27.824;2023-02-28T19:20:02;102801.69;;;6.35;100.00
63090;BME280;49174;43.198;27.824;2023-02-28T19:22:28;102802.69;;;6.34;100.00
63090;BME280;49174;43.198;27.824;2023-02-28T19:24:53;102799.41;;;6.41;100.00
63090;BME280;49174;43.198;27.824;2023-02-28T19:27:19;102800.25;;;6.42;100.00
63090;BME280;49174;43.198;27.824;2023-02-28T19:29:49;102810.13;;;6.41;100.00
63090;BME280;49174;43.198;27.824;2023-02-28T19:32:15;102803.44;;;6.36;100.00
63090;BME280;49174;43.198;27.824;2023-02-28T19:34:41;102808.16;;;6.32;100.00